East Fork, Illinois
Current Conditions -  °F | °C
As of 3:55 AM on Thursday 23 Oct 2014 (Local Time) from K3LF Reporting Station
Clear Clear  
Wind Chill: 36°   Ceiling: Unl
Heat Index: 40°   Visibility: 10mi
Dew Point: 37°   Wind: 7mph
Humidity: 86%   Direction: 140°SE
Pressure: 30.21"   Gusts: NA
Location:  39.1049°N, 89.4043°W
Report Text: K3LF 230855Z AUTO 14006KT 10SM CLR 05/03 A3021 RMK AO2 T00460025
Loading
Personal Weather Stations






























Interactive Weather Map
Tropical Storm Tracking
New forecast layout! Learn more

10-Day Weather Forecast

Advertisements
Track Severe Weather on mobile